Main page
METAR-TAF:

METAR-TAF

Airports :

Damascus International Airport

Damascus, Syria

latitude: 33-25N, longitude: 036-31E, elevation: 608 m

Current weather observation

The report was made 37 minutes ago, at 14:00 UTC
Wind 3 kt from the East/Northeast
Temperature 9°C
Humidity 37%
Pressure 1029 hPa
Visibility 10 km or more
no clouds below 1500 m and no cumulonimbus

METAR: OSDI 211400Z 06003KT CAVOK 09/M05 Q1029

Time: 16:37 (14:37 UTC)

Forecast

The report was made 4 hours and 7 minutes ago, at 10:30 UTC
Forecast valid from 21 at 12 UTC to 22 at 18 UTC
Wind 10 kt from the East
Visibility 10 km or more
Few clouds at a height of 3000 ft
Temporary
from 21 at 20 UTC to 22 at 10 UTC
Wind 3 kt from variable directions
Visibility 10 km or more
no clouds below 1500 m and no cumulonimbus

TAF: OSDI 211030Z 2112/2218 09010KT 9999 FEW030 TEMPO 2120/2210 VRB03KT CAVOK

Weather observations and forecasts of more than 4000 airports (METAR and TAF reports).

The available stations are represented by yellow and red dots on the map.

Hover mouse over dot to see the name of the station.

Then click to see weather observations and forecasts.

To change the map : click on the green buttons with a black cross to zoom in, on the green button with a dash to zoom out, or on the green arrows for adjacent maps.


METAR-TAF: